Time;durP1;ratioP1;P1;durP2;ratioP2;P2;SDS_P1;SDS_P2;PMS_P1;PMS_P2;Temp;Humidity;BMP_temperature;BMP_pressure;BME280_temperature;BME280_humidity;BME280_pressure;Samples;Min_cycle;Max_cycle;Signal;HPM_P1;HPM_P2
2021/12/21 00:00:23;;;;;;;56.63;39.35;;;1.20;99.90;;;;;;5072082;28;20108;-55
2021/12/21 00:02:51;;;;;;;47.58;36.85;;;1.10;99.90;;;;;;5067743;28;20560;-55
2021/12/21 00:05:20;;;;;;;47.00;34.63;;;1.00;99.90;;;;;;5072909;28;20528;-53
2021/12/21 00:07:50;;;;;;;44.50;33.97;;;1.00;99.90;;;;;;5073585;28;20046;-54
2021/12/21 00:10:18;;;;;;;40.45;32.55;;;1.20;99.90;;;;;;5072913;28;20052;-55
2021/12/21 00:15:40;;;;;;;165.45;72.65;;;1.40;99.90;;;;;;5070057;28;20391;-55
2021/12/21 00:18:24;;;;;;;109.95;58.08;;;1.40;99.90;;;;;;5070676;28;20059;-54
2021/12/21 00:21:08;;;;;;;69.10;43.13;;;1.50;99.90;;;;;;5070897;28;20033;-55
2021/12/21 00:26:09;;;;;;;57.28;39.42;;;1.50;99.90;;;;;;5072095;28;20028;-54
2021/12/21 00:28:49;;;;;;;63.72;42.05;;;1.50;99.90;;;;;;5069494;28;20502;-56
2021/12/21 00:31:15;;;;;;;85.72;49.03;;;1.30;99.90;;;;;;5070097;28;20506;-55
2021/12/21 00:33:45;;;;;;;106.82;55.08;;;1.50;99.90;;;;;;5072926;28;20040;-55
2021/12/21 00:36:13;;;;;;;48.83;36.53;;;1.50;99.90;;;;;;5067077;28;20044;-56
2021/12/21 00:38:39;;;;;;;46.55;33.90;;;1.50;99.90;;;;;;5057799;28;20132;-55
2021/12/21 00:41:04;;;;;;;39.10;31.13;;;1.40;99.90;;;;;;5064357;28;20560;-56
2021/12/21 00:43:31;;;;;;;63.80;39.97;;;1.40;99.90;;;;;;5070200;28;20025;-56
2021/12/21 00:45:57;;;;;;;47.60;34.80;;;1.40;99.90;;;;;;5071787;28;20509;-55
2021/12/21 00:48:27;;;;;;;77.60;46.55;;;1.50;99.90;;;;;;5074670;28;20024;-55
2021/12/21 00:50:54;;;;;;;43.55;33.78;;;1.50;99.90;;;;;;5069857;28;20033;-54
2021/12/21 00:53:20;;;;;;;65.90;43.17;;;1.50;99.90;;;;;;5071276;28;20540;-55
2021/12/21 00:55:46;;;;;;;62.42;41.47;;;1.50;99.90;;;;;;5069922;28;20028;-55
2021/12/21 00:58:12;;;;;;;43.13;32.50;;;1.50;99.90;;;;;;5069330;28;20071;-55
2021/12/21 01:00:38;;;;;;;41.85;32.45;;;1.50;99.90;;;;;;5072148;28;20021;-54
2021/12/21 01:03:09;;;;;;;55.60;38.10;;;1.40;99.90;;;;;;5070557;28;20036;-56
2021/12/21 01:05:49;;;;;;;56.88;39.63;;;1.40;99.90;;;;;;5069793;28;20025;-54
2021/12/21 01:08:19;;;;;;;56.85;40.50;;;1.50;99.90;;;;;;5069869;28;20107;-56
2021/12/21 01:11:08;;;;;;;44.55;34.50;;;1.60;99.90;;;;;;5069221;28;20039;-55
2021/12/21 01:16:21;;;;;;;42.75;33.40;;;1.50;99.90;;;;;;5069929;28;20020;-54
2021/12/21 01:21:33;;;;;;;44.47;36.03;;;1.60;99.90;;;;;;5069652;28;20100;-57
2021/12/21 01:29:33;;;;;;;57.35;41.30;;;1.70;99.90;;;;;;5069312;28;20059;-55
2021/12/21 01:32:03;;;;;;;54.33;41.20;;;1.70;99.90;;;;;;5069396;28;20107;-55
2021/12/21 01:34:45;;;;;;;66.60;48.42;;;1.60;99.90;;;;;;5069448;28;20403;-54
2021/12/21 01:37:49;;;;;;;54.35;38.63;;;1.60;99.90;;;;;;5054883;28;20049;-55
2021/12/21 01:43:10;;;;;;;53.72;40.72;;;1.80;99.90;;;;;;5070625;28;20039;-53
2021/12/21 01:51:26;;;;;;;56.17;44.28;;;1.70;99.90;;;;;;5070659;28;20072;-52
2021/12/21 01:53:53;;;;;;;45.33;35.75;;;1.60;99.90;;;;;;5068946;28;20040;-54
2021/12/21 01:56:19;;;;;;;46.30;37.60;;;1.80;99.90;;;;;;5068552;28;20037;-50
2021/12/21 01:58:45;;;;;;;46.35;35.58;;;1.60;99.90;;;;;;5069175;28;20514;-55
2021/12/21 02:01:13;;;;;;;49.15;38.95;;;1.60;99.90;;;;;;5069527;28;20032;-55
2021/12/21 02:03:41;;;;;;;49.08;38.90;;;1.60;99.90;;;;;;5069652;28;20036;-54
2021/12/21 02:06:07;;;;;;;48.42;39.10;;;1.50;99.90;;;;;;5070535;28;20544;-55
2021/12/21 02:08:33;;;;;;;47.38;38.00;;;1.40;99.90;;;;;;5069077;28;20051;-55
2021/12/21 02:11:04;;;;;;;48.28;37.58;;;1.30;99.90;;;;;;5068810;28;20044;-53
2021/12/21 02:13:32;;;;;;;55.15;41.60;;;1.20;99.90;;;;;;5068316;28;20498;-56
2021/12/21 02:15:59;;;;;;;59.58;42.60;;;1.10;99.90;;;;;;5069353;28;20028;-54
2021/12/21 02:20:57;;;;;;;77.53;59.88;;;1.50;99.90;;;;;;5069400;28;20024;-55
2021/12/21 02:23:32;;;;;;;81.63;59.35;;;1.20;99.90;;;;;;5063778;28;20044;-50
2021/12/21 02:28:47;;;;;;;68.45;53.42;;;1.20;99.90;;;;;;5068478;28;20029;-55
2021/12/21 02:31:16;;;;;;;59.50;47.72;;;1.20;99.90;;;;;;5053519;28;20040;-54
2021/12/21 02:33:42;;;;;;;65.18;48.70;;;1.10;99.90;;;;;;5070511;28;20495;-54
2021/12/21 02:36:08;;;;;;;81.28;57.97;;;1.10;99.90;;;;;;5070155;28;20031;-55
2021/12/21 02:38:33;;;;;;;74.65;52.83;;;1.40;99.90;;;;;;5069343;28;20136;-54
2021/12/21 02:40:59;;;;;;;49.15;39.58;;;1.40;99.90;;;;;;5067840;28;20024;-55
2021/12/21 02:43:28;;;;;;;53.08;41.35;;;1.40;99.90;;;;;;5069577;28;20406;-55
2021/12/21 02:45:54;;;;;;;54.28;42.25;;;1.20;99.90;;;;;;5070144;28;20116;-56
2021/12/21 02:48:20;;;;;;;56.40;42.92;;;1.20;99.90;;;;;;5072134;28;20027;-51
2021/12/21 02:50:46;;;;;;;63.13;46.70;;;1.40;99.90;;;;;;5067765;28;20028;-56
2021/12/21 02:53:11;;;;;;;53.92;41.63;;;1.40;99.90;;;;;;5067919;28;20035;-53
2021/12/21 02:55:38;;;;;;;58.28;44.13;;;1.30;99.90;;;;;;5067512;28;20194;-57
2021/12/21 02:58:04;;;;;;;45.30;35.60;;;1.30;99.90;;;;;;5067984;28;20043;-50
2021/12/21 03:00:31;;;;;;;46.38;37.10;;;1.40;99.90;;;;;;5072372;28;20482;-57
2021/12/21 03:02:59;;;;;;;50.13;40.67;;;1.40;99.90;;;;;;5069770;28;20029;-56
2021/12/21 03:05:26;;;;;;;48.08;38.03;;;1.30;99.90;;;;;;5067670;28;20024;-53
2021/12/21 03:08:16;;;;;;;52.17;41.05;;;1.30;99.90;;;;;;5067504;28;20415;-55
2021/12/21 03:10:59;;;;;;;49.97;39.00;;;1.20;99.90;;;;;;5067256;28;20029;-53
2021/12/21 03:16:09;;;;;;;46.92;38.42;;;1.30;99.90;;;;;;5054366;28;20461;-56
2021/12/21 03:18:34;;;;;;;52.65;42.17;;;1.30;99.90;;;;;;5070582;28;20036;-55
2021/12/21 03:21:00;;;;;;;45.25;38.67;;;1.30;99.90;;;;;;5068708;28;20025;-54
2021/12/21 03:23:26;;;;;;;49.50;40.42;;;1.40;99.90;;;;;;5068758;28;20032;-55
2021/12/21 03:25:52;;;;;;;42.65;36.78;;;1.40;99.90;;;;;;5067141;28;20071;-54
2021/12/21 03:28:17;;;;;;;50.70;41.47;;;1.30;99.90;;;;;;5067676;28;20071;-56
2021/12/21 03:30:43;;;;;;;47.50;38.47;;;1.30;99.90;;;;;;5069963;28;20027;-56
2021/12/21 03:33:09;;;;;;;40.03;33.47;;;1.30;99.90;;;;;;5068871;28;20055;-56
2021/12/21 03:35:34;;;;;;;40.08;30.85;;;1.30;99.90;;;;;;5067314;28;20406;-55
2021/12/21 03:38:00;;;;;;;41.97;33.90;;;1.40;99.90;;;;;;5066952;28;20125;-54
2021/12/21 03:40:31;;;;;;;45.15;33.78;;;1.30;99.90;;;;;;5067591;28;20024;-53
2021/12/21 03:42:57;;;;;;;38.95;31.85;;;1.40;99.90;;;;;;5068083;28;20025;-54
2021/12/21 03:45:23;;;;;;;46.70;38.72;;;1.50;99.90;;;;;;5070894;28;20028;-54
2021/12/21 03:47:48;;;;;;;52.40;42.40;;;1.10;99.90;;;;;;5067143;28;20044;-54
2021/12/21 03:50:19;;;;;;;48.30;38.60;;;1.00;99.90;;;;;;5067266;28;20021;-53
2021/12/21 03:52:45;;;;;;;46.50;34.38;;;0.90;99.90;;;;;;5066813;28;20064;-56
2021/12/21 03:55:11;;;;;;;47.70;35.40;;;1.20;99.90;;;;;;5069060;28;20040;-56
2021/12/21 03:57:37;;;;;;;49.22;38.10;;;1.20;99.90;;;;;;5070086;28;20028;-56
2021/12/21 04:00:07;;;;;;;58.15;43.30;;;1.20;99.90;;;;;;5068598;28;20039;-56
2021/12/21 04:02:33;;;;;;;56.85;42.10;;;1.10;99.90;;;;;;5068439;28;20486;-55
2021/12/21 04:04:59;;;;;;;53.15;42.47;;;1.20;99.90;;;;;;5067003;28;20032;-56
2021/12/21 04:07:26;;;;;;;58.60;44.53;;;0.80;99.90;;;;;;5066823;28;20108;-54
2021/12/21 04:09:52;;;;;;;47.65;37.83;;;0.80;99.90;;;;;;5068767;28;20025;-55
2021/12/21 04:12:18;;;;;;;56.25;40.75;;;0.80;99.90;;;;;;5069955;28;20546;-54
2021/12/21 04:14:44;;;;;;;55.10;40.28;;;0.60;99.90;;;;;;5066941;28;20103;-55
2021/12/21 04:17:18;;;;;;;51.28;39.85;;;0.40;99.90;;;;;;5066655;28;20044;-56
2021/12/21 04:19:45;;;;;;;53.25;41.72;;;0.40;99.90;;;;;;5066459;28;20038;-57
2021/12/21 04:22:10;;;;;;;59.03;44.30;;;0.50;99.90;;;;;;5066489;28;20025;-55
2021/12/21 04:24:36;;;;;;;53.25;41.70;;;0.60;99.90;;;;;;5069882;28;20430;-54
2021/12/21 04:27:02;;;;;;;67.40;49.78;;;0.50;99.90;;;;;;5068155;28;20085;-55
2021/12/21 04:29:28;;;;;;;53.70;41.53;;;0.50;99.90;;;;;;5066955;28;20556;-55
2021/12/21 04:31:54;;;;;;;48.20;36.85;;;0.60;99.90;;;;;;5066721;28;20041;-54
2021/12/21 04:34:19;;;;;;;63.33;47.47;;;0.40;99.90;;;;;;5068357;28;20028;-55
2021/12/21 04:36:46;;;;;;;68.60;46.45;;;0.30;99.90;;;;;;5069568;28;20045;-54
2021/12/21 04:39:26;;;;;;;63.53;45.65;;;0.50;99.90;;;;;;5072619;28;20119;-55
2021/12/21 04:41:51;;;;;;;58.15;40.72;;;0.40;99.90;;;;;;5070480;28;20040;-54
2021/12/21 04:44:17;;;;;;;52.03;36.45;;;0.50;99.90;;;;;;5070351;28;20028;-54
2021/12/21 04:46:43;;;;;;;54.80;38.38;;;0.50;99.90;;;;;;5070171;28;20162;-55
2021/12/21 04:49:09;;;;;;;42.55;32.33;;;0.60;99.90;;;;;;5070296;28;20497;-55
2021/12/21 04:51:34;;;;;;;43.25;32.10;;;0.70;99.90;;;;;;5073599;28;20107;-55
2021/12/21 04:54:00;;;;;;;43.03;33.38;;;0.80;99.90;;;;;;5071083;28;20434;-55
2021/12/21 04:56:26;;;;;;;34.30;27.27;;;0.80;99.90;;;;;;5070194;28;20036;-55
2021/12/21 04:58:52;;;;;;;34.53;27.73;;;0.90;99.90;;;;;;5070159;28;20041;-54
2021/12/21 05:01:17;;;;;;;34.40;27.67;;;0.80;99.90;;;;;;5069937;28;20484;-54
2021/12/21 05:03:43;;;;;;;37.38;30.05;;;0.90;99.90;;;;;;5072505;28;20025;-54
2021/12/21 05:06:09;;;;;;;36.17;28.35;;;1.00;99.90;;;;;;5071192;28;20395;-55
2021/12/21 05:08:38;;;;;;;30.45;25.48;;;1.10;99.90;;;;;;5069891;28;20502;-54
2021/12/21 05:11:06;;;;;;;33.67;27.50;;;0.90;99.90;;;;;;5070176;28;20036;-53
2021/12/21 05:13:34;;;;;;;33.10;25.98;;;0.90;99.90;;;;;;5070116;28;20111;-55
2021/12/21 05:16:00;;;;;;;29.95;24.67;;;0.70;99.90;;;;;;5053957;28;20479;-54
2021/12/21 05:18:27;;;;;;;30.23;25.73;;;0.60;99.90;;;;;;5073382;28;20074;-54
2021/12/21 05:20:53;;;;;;;33.63;25.90;;;0.40;99.90;;;;;;5069424;28;20034;-54
2021/12/21 05:23:19;;;;;;;33.47;25.70;;;0.20;99.90;;;;;;5069644;28;20112;-53
2021/12/21 05:25:45;;;;;;;35.17;27.67;;;0.20;99.90;;;;;;5069475;28;20064;-53
2021/12/21 05:28:13;;;;;;;35.88;29.52;;;0.40;99.90;;;;;;5069826;28;20075;-53
2021/12/21 05:30:39;;;;;;;35.42;28.27;;;0.60;99.90;;;;;;5071823;28;20032;-54
2021/12/21 05:33:05;;;;;;;34.15;27.88;;;0.40;99.90;;;;;;5071068;28;20074;-54
2021/12/21 05:35:32;;;;;;;31.08;25.42;;;0.30;99.90;;;;;;5068958;28;20028;-52
2021/12/21 05:38:02;;;;;;;34.38;26.58;;;0.40;99.90;;;;;;5070645;28;20402;-52
2021/12/21 05:40:43;;;;;;;34.70;27.50;;;0.20;99.90;;;;;;5069491;28;20028;-53
2021/12/21 05:43:11;;;;;;;37.83;28.65;;;0.00;99.90;;;;;;5054428;28;20067;-55
2021/12/21 05:45:38;;;;;;;41.05;31.85;;;0.20;99.90;;;;;;5072214;28;20494;-55
2021/12/21 05:48:04;;;;;;;71.18;50.80;;;0.20;99.90;;;;;;5070001;28;20032;-51
2021/12/21 05:50:30;;;;;;;36.67;30.65;;;0.10;99.90;;;;;;5069312;28;20016;-55
2021/12/21 05:52:56;;;;;;;34.20;27.65;;;0.40;99.90;;;;;;5069048;28;20096;-56
2021/12/21 05:55:22;;;;;;;32.40;27.02;;;0.60;99.90;;;;;;5069214;28;20108;-54
2021/12/21 05:57:48;;;;;;;29.98;25.30;;;0.60;99.90;;;;;;5071252;28;20074;-51
2021/12/21 06:00:19;;;;;;;31.27;25.70;;;0.70;99.90;;;;;;5071005;28;20096;-54
2021/12/21 06:02:45;;;;;;;30.27;24.67;;;0.70;99.90;;;;;;5068435;28;20032;-54
2021/12/21 06:05:11;;;;;;;39.20;29.58;;;0.70;99.90;;;;;;5068624;28;20066;-54
2021/12/21 06:07:37;;;;;;;38.88;28.85;;;0.70;99.90;;;;;;5069108;28;20423;-55
2021/12/21 06:10:13;;;;;;;35.70;28.05;;;0.80;99.90;;;;;;5068743;28;20024;-55
2021/12/21 06:15:35;;;;;;;35.60;25.27;;;0.90;99.90;;;;;;5072498;28;20074;-54
2021/12/21 06:26:10;;;;;;;32.13;23.38;;;0.80;99.90;;;;;;5068378;28;20490;-53
2021/12/21 06:28:37;;;;;;;34.45;26.13;;;0.80;99.90;;;;;;5068303;28;20040;-53
2021/12/21 06:31:03;;;;;;;32.95;24.33;;;0.60;99.90;;;;;;5068815;28;20568;-55
2021/12/21 06:33:29;;;;;;;39.78;30.88;;;0.60;99.90;;;;;;5067574;28;20072;-54
2021/12/21 06:35:55;;;;;;;38.13;30.77;;;0.60;99.90;;;;;;5068142;28;20032;-54
2021/12/21 06:38:21;;;;;;;41.20;34.75;;;0.50;99.90;;;;;;5068033;28;20391;-53
2021/12/21 06:40:47;;;;;;;37.25;31.25;;;0.50;99.90;;;;;;5068389;28;20092;-54
2021/12/21 06:43:15;;;;;;;39.28;30.90;;;0.80;99.90;;;;;;5067903;28;20033;-55
2021/12/21 06:53:39;;;;;;;30.85;27.45;;;0.70;99.90;;;;;;5068047;28;20443;-54
2021/12/21 06:56:09;;;;;;;34.38;27.13;;;0.70;99.90;;;;;;5069345;28;20112;-54
2021/12/21 06:58:35;;;;;;;32.67;25.38;;;0.80;99.90;;;;;;5069121;28;20032;-54
2021/12/21 07:01:02;;;;;;;26.25;21.73;;;0.90;99.90;;;;;;5051745;28;20024;-52
2021/12/21 07:03:28;;;;;;;21.25;17.83;;;1.00;99.90;;;;;;5071739;28;20394;-50
2021/12/21 07:05:54;;;;;;;22.92;19.17;;;1.10;99.90;;;;;;5067614;28;20024;-48
2021/12/21 07:08:28;;;;;;;25.20;21.83;;;1.10;99.90;;;;;;5067909;28;20035;-51
2021/12/21 07:11:18;;;;;;;29.55;23.35;;;0.80;99.90;;;;;;5067662;28;20024;-54
2021/12/21 07:19:13;;;;;;;28.40;23.08;;;0.60;99.90;;;;;;5053002;28;20044;-55
2021/12/21 07:21:39;;;;;;;33.45;25.13;;;0.70;99.90;;;;;;5070167;28;20074;-52
2021/12/21 07:24:06;;;;;;;33.85;26.75;;;0.70;99.90;;;;;;5070361;28;20510;-54
2021/12/21 07:26:31;;;;;;;28.55;24.50;;;0.80;99.90;;;;;;5067426;28;20029;-49
2021/12/21 07:28:57;;;;;;;29.10;24.42;;;0.80;99.90;;;;;;5067552;28;20047;-55
2021/12/21 07:31:23;;;;;;;30.83;26.52;;;1.00;99.90;;;;;;5067481;28;20115;-54
2021/12/21 07:33:49;;;;;;;28.65;25.23;;;1.00;99.90;;;;;;5068924;28;20025;-55
2021/12/21 07:36:14;;;;;;;31.40;24.73;;;1.00;99.90;;;;;;5071578;28;20024;-54
2021/12/21 07:38:40;;;;;;;25.95;23.15;;;1.00;99.90;;;;;;5062994;28;20166;-53
2021/12/21 07:41:06;;;;;;;29.52;25.13;;;1.00;99.90;;;;;;5067478;28;20021;-54
2021/12/21 07:43:32;;;;;;;27.20;22.92;;;1.10;99.90;;;;;;5067524;28;20506;-55
2021/12/21 07:45:57;;;;;;;25.83;21.90;;;1.20;99.90;;;;;;5067938;28;20055;-54
2021/12/21 07:48:24;;;;;;;25.55;22.85;;;1.30;99.90;;;;;;5070932;28;20165;-55
2021/12/21 07:50:51;;;;;;;29.48;23.55;;;1.30;99.90;;;;;;5067239;28;20525;-54
2021/12/21 07:53:19;;;;;;;29.90;25.83;;;1.30;99.90;;;;;;5066811;28;20021;-51
2021/12/21 07:55:45;;;;;;;27.90;24.33;;;1.40;99.90;;;;;;5067335;28;20384;-52
2021/12/21 07:58:12;;;;;;;32.72;27.83;;;1.40;99.90;;;;;;5067313;28;20082;-50
2021/12/21 08:00:38;;;;;;;28.80;25.35;;;1.60;99.90;;;;;;5069372;28;20112;-54
2021/12/21 08:03:04;;;;;;;27.30;23.17;;;1.60;99.90;;;;;;5068724;28;20029;-54
2021/12/21 08:05:33;;;;;;;22.73;20.17;;;1.80;99.90;;;;;;5067062;28;20115;-55
2021/12/21 08:08:16;;;;;;;21.85;19.48;;;1.90;99.90;;;;;;5066881;28;20098;-53
2021/12/21 08:10:46;;;;;;;20.73;18.30;;;2.00;99.90;;;;;;5067045;28;20111;-51
2021/12/21 08:13:13;;;;;;;22.88;19.17;;;2.00;99.90;;;;;;5071445;28;20087;-50
2021/12/21 08:15:38;;;;;;;19.98;17.88;;;2.10;99.90;;;;;;5073807;28;20075;-53
2021/12/21 08:18:04;;;;;;;20.48;18.10;;;2.60;99.90;;;;;;5072153;28;20036;-53
2021/12/21 08:20:30;;;;;;;20.67;17.55;;;3.30;99.90;;;;;;5070601;28;20051;-49
2021/12/21 08:22:56;;;;;;;19.60;17.48;;;3.20;99.90;;;;;;5070939;28;20056;-51
2021/12/21 08:25:25;;;;;;;18.73;16.77;;;2.60;99.90;;;;;;5070629;28;20112;-47
2021/12/21 08:27:52;;;;;;;20.63;18.45;;;2.40;99.90;;;;;;5071910;28;20024;-51
2021/12/21 08:30:18;;;;;;;21.55;17.73;;;2.30;99.90;;;;;;5072972;28;20019;-48
2021/12/21 08:32:43;;;;;;;20.65;18.15;;;2.60;99.90;;;;;;5070378;28;20036;-49
2021/12/21 08:35:12;;;;;;;19.65;17.48;;;2.60;99.90;;;;;;5070724;28;20100;-48
2021/12/21 08:37:48;;;;;;;21.67;18.60;;;2.50;99.90;;;;;;5070400;28;20401;-51
2021/12/21 08:40:14;;;;;;;22.05;19.50;;;2.40;99.90;;;;;;5070196;28;20040;-50
2021/12/21 08:42:41;;;;;;;22.25;19.13;;;2.60;99.90;;;;;;5072497;28;20035;-46
2021/12/21 08:45:07;;;;;;;21.13;18.83;;;2.50;99.90;;;;;;5071645;28;20442;-47
2021/12/21 08:47:34;;;;;;;19.38;17.27;;;2.90;99.90;;;;;;5070271;28;20070;-55
2021/12/21 08:49:59;;;;;;;18.35;16.38;;;4.00;99.90;;;;;;5070049;28;20032;-48
2021/12/21 08:52:25;;;;;;;16.63;14.88;;;4.80;99.90;;;;;;5071429;28;20032;-50
2021/12/21 08:54:51;;;;;;;16.70;14.90;;;5.00;99.90;;;;;;5071951;28;20502;-50
2021/12/21 08:57:17;;;;;;;15.00;12.63;;;5.90;99.90;;;;;;5071981;28;20086;-51
2021/12/21 08:59:42;;;;;;;14.75;13.05;;;6.00;99.90;;;;;;5069516;28;20036;-51
2021/12/21 09:02:09;;;;;;;12.93;11.63;;;6.40;99.90;;;;;;5069616;28;20028;-50
2021/12/21 09:04:35;;;;;;;14.68;11.75;;;7.20;99.90;;;;;;5070063;28;20494;-48
2021/12/21 09:07:03;;;;;;;13.98;12.45;;;7.60;99.90;;;;;;5070374;28;20032;-48
2021/12/21 09:09:29;;;;;;;15.88;13.40;;;7.30;99.90;;;;;;5073811;28;20028;-52
2021/12/21 09:11:56;;;;;;;16.23;13.45;;;6.60;99.90;;;;;;5067773;28;20032;-47
2021/12/21 09:14:22;;;;;;;16.35;13.60;;;7.00;99.90;;;;;;5069520;28;20106;-49
2021/12/21 09:16:49;;;;;;;15.32;12.60;;;6.80;99.90;;;;;;5063770;28;20025;-54
2021/12/21 09:19:16;;;;;;;14.52;11.75;;;7.70;99.90;;;;;;5064682;28;20068;-50
2021/12/21 09:21:42;;;;;;;13.85;11.52;;;8.00;99.90;;;;;;5053865;28;20029;-50
2021/12/21 09:24:09;;;;;;;12.25;10.95;;;7.30;99.90;;;;;;5054030;28;20699;-51
2021/12/21 09:26:35;;;;;;;12.60;10.88;;;7.00;99.90;;;;;;5054299;28;20074;-53
2021/12/21 09:29:02;;;;;;;12.40;10.73;;;8.30;99.90;;;;;;5063388;28;20040;-53
2021/12/21 09:31:28;;;;;;;13.88;11.07;;;8.50;99.90;;;;;;5059477;28;20036;-53
2021/12/21 09:33:54;;;;;;;12.88;11.25;;;8.60;99.90;;;;;;5068606;28;24061;-55
2021/12/21 09:36:20;;;;;;;11.10;9.98;;;8.40;99.90;;;;;;5063290;28;20018;-54
2021/12/21 09:38:46;;;;;;;13.25;10.98;;;8.50;99.90;;;;;;5063585;28;20183;-53
2021/12/21 09:41:12;;;;;;;14.90;11.60;;;7.70;99.90;;;;;;5062104;28;20391;-55
2021/12/21 09:43:40;;;;;;;13.20;10.38;;;9.00;99.90;;;;;;5070326;28;20403;-53
2021/12/21 09:46:10;;;;;;;13.93;10.30;;;9.00;99.90;;;;;;5068906;28;20028;-49
2021/12/21 09:48:36;;;;;;;13.85;10.95;;;9.00;99.90;;;;;;5068157;28;20029;-55
2021/12/21 09:51:02;;;;;;;10.95;9.30;;;9.70;99.90;;;;;;5070078;28;20017;-56
2021/12/21 09:53:30;;;;;;;11.23;9.98;;;9.40;99.90;;;;;;5069279;28;20033;-52
2021/12/21 09:55:56;;;;;;;12.73;10.07;;;8.80;99.90;;;;;;5072382;28;20027;-55
2021/12/21 09:58:22;;;;;;;13.88;9.55;;;9.50;99.90;;;;;;5068177;28;20037;-53
2021/12/21 10:00:48;;;;;;;11.55;9.23;;;9.90;99.90;;;;;;5069978;28;20028;-54
2021/12/21 10:03:14;;;;;;;12.32;9.15;;;9.40;99.90;;;;;;5069985;28;20111;-54
2021/12/21 10:05:43;;;;;;;16.33;11.43;;;8.90;99.90;;;;;;5067556;28;20112;-55
2021/12/21 10:08:16;;;;;;;15.25;11.40;;;9.20;99.90;;;;;;5070670;28;20336;-56
2021/12/21 10:10:46;;;;;;;14.70;10.63;;;9.50;99.90;;;;;;5068255;28;20073;-55
2021/12/21 10:13:19;;;;;;;13.68;11.02;;;9.70;99.90;;;;;;5069849;28;20052;-55
2021/12/21 10:15:53;;;;;;;14.40;9.02;;;10.10;99.90;;;;;;5070849;28;20099;-50
2021/12/21 10:18:27;;;;;;;10.95;8.85;;;10.60;99.90;;;;;;5070856;28;20060;-55
2021/12/21 10:20:55;;;;;;;12.35;9.13;;;10.90;99.90;;;;;;5067309;28;20074;-53
2021/12/21 10:23:28;;;;;;;9.48;8.48;;;11.70;99.90;;;;;;5068296;28;20028;-55
2021/12/21 10:25:58;;;;;;;8.60;7.63;;;11.70;99.90;;;;;;5067816;28;20119;-55
2021/12/21 10:28:40;;;;;;;8.10;7.30;;;12.30;99.90;;;;;;5068242;28;20037;-57
2021/12/21 10:31:07;;;;;;;9.45;7.70;;;11.00;99.90;;;;;;5053050;28;20479;-57
2021/12/21 10:33:34;;;;;;;9.93;7.32;;;10.50;99.90;;;;;;5072314;28;20062;-56
2021/12/21 10:36:02;;;;;;;8.68;7.45;;;9.90;99.90;;;;;;5069409;28;20111;-56
2021/12/21 10:38:51;;;;;;;8.52;7.68;;;10.20;99.90;;;;;;5067960;28;20033;-56
2021/12/21 10:41:20;;;;;;;10.70;7.97;;;10.90;99.90;;;;;;5067811;28;20049;-57
2021/12/21 10:44:16;;;;;;;8.93;7.72;;;11.20;99.90;;;;;;5069241;28;20475;-57
2021/12/21 10:46:44;;;;;;;9.10;7.68;;;11.40;99.90;;;;;;5059197;28;20037;-56
2021/12/21 10:49:19;;;;;;;8.60;7.70;;;11.40;99.90;;;;;;5067250;28;20077;-55
2021/12/21 10:52:05;;;;;;;7.90;7.13;;;11.40;99.90;;;;;;5067768;28;20098;-56
2021/12/21 10:54:37;;;;;;;10.98;7.75;;;11.10;99.90;;;;;;5052538;28;20186;-56
2021/12/21 10:57:06;;;;;;;9.10;7.70;;;10.80;99.90;;;;;;5061417;28;20021;-56
2021/12/21 10:59:34;;;;;;;12.52;10.57;;;9.90;99.90;;;;;;5057257;28;20039;-55
2021/12/21 11:02:14;;;;;;;13.13;11.65;;;9.80;99.90;;;;;;5067876;28;20017;-52
2021/12/21 11:04:47;;;;;;;11.32;10.02;;;9.50;99.90;;;;;;5070987;28;20028;-57
2021/12/21 11:07:44;;;;;;;9.27;7.80;;;9.40;99.90;;;;;;5066901;28;20519;-56
2021/12/21 11:10:15;;;;;;;10.18;7.95;;;10.30;99.90;;;;;;5066717;28;20048;-52
2021/12/21 11:12:44;;;;;;;9.27;7.80;;;9.00;99.90;;;;;;5055906;28;20033;-53
2021/12/21 11:15:13;;;;;;;9.45;7.30;;;9.40;99.90;;;;;;5053825;28;20384;-54
2021/12/21 11:17:39;;;;;;;8.88;7.97;;;10.20;99.90;;;;;;5063103;28;20372;-54
2021/12/21 11:20:06;;;;;;;9.23;8.00;;;9.60;99.90;;;;;;5061726;28;20032;-56
2021/12/21 11:22:32;;;;;;;9.90;8.00;;;9.90;99.90;;;;;;5057789;28;20064;-55
2021/12/21 11:24:59;;;;;;;8.65;7.80;;;10.00;99.90;;;;;;5057092;28;20094;-54
2021/12/21 11:27:28;;;;;;;9.18;8.27;;;9.70;99.90;;;;;;5060958;28;20062;-56
2021/12/21 11:29:59;;;;;;;11.07;8.40;;;10.20;99.90;;;;;;5062900;28;20025;-56
2021/12/21 11:32:29;;;;;;;9.55;7.40;;;10.20;99.90;;;;;;5062874;28;20064;-56
2021/12/21 11:37:34;;;;;;;8.60;7.68;;;10.90;99.90;;;;;;5068327;28;20479;-57
2021/12/21 11:40:00;;;;;;;10.73;8.13;;;10.20;99.90;;;;;;5067337;28;20033;-57
2021/12/21 11:42:36;;;;;;;8.00;7.20;;;11.00;99.90;;;;;;5069774;28;20017;-57
2021/12/21 11:45:30;;;;;;;7.53;6.78;;;10.70;99.90;;;;;;5068583;28;20028;-58
2021/12/21 11:48:11;;;;;;;8.52;6.60;;;11.60;99.90;;;;;;5070781;28;20169;-57
2021/12/21 11:50:43;;;;;;;9.52;7.72;;;11.00;99.90;;;;;;5070547;28;20461;-57
2021/12/21 11:53:12;;;;;;;8.85;7.95;;;11.20;99.90;;;;;;5067273;28;20036;-57
2021/12/21 11:55:42;;;;;;;8.95;8.05;;;10.90;99.90;;;;;;5070506;28;20017;-57
2021/12/21 11:58:19;;;;;;;8.70;7.30;;;10.70;99.90;;;;;;5070676;28;20056;-57
2021/12/21 12:00:57;;;;;;;9.68;8.20;;;10.20;99.90;;;;;;5065427;28;20025;-58
2021/12/21 12:03:26;;;;;;;11.05;9.75;;;9.90;99.90;;;;;;5071803;28;20483;-57
2021/12/21 12:06:00;;;;;;;9.00;7.97;;;9.90;99.90;;;;;;5070553;28;20025;-56
2021/12/21 12:08:40;;;;;;;11.05;7.85;;;9.80;99.90;;;;;;5073224;28;20043;-56
2021/12/21 12:11:07;;;;;;;9.25;8.07;;;10.90;99.90;;;;;;5066093;28;20510;-56
2021/12/21 12:13:39;;;;;;;9.27;7.63;;;10.30;99.90;;;;;;5065501;28;20095;-56
2021/12/21 12:16:09;;;;;;;9.27;7.22;;;10.30;99.90;;;;;;5070125;28;20032;-57
2021/12/21 12:18:41;;;;;;;8.00;6.97;;;10.60;99.90;;;;;;5068782;28;20098;-56
2021/12/21 12:21:20;;;;;;;8.40;6.80;;;10.60;99.90;;;;;;5069936;28;20024;-55
2021/12/21 12:23:52;;;;;;;10.05;7.32;;;10.40;99.90;;;;;;5069396;28;20020;-51
2021/12/21 12:26:28;;;;;;;9.13;7.07;;;10.50;99.90;;;;;;5072610;28;20103;-56
2021/12/21 12:29:16;;;;;;;7.00;6.30;;;10.80;99.90;;;;;;5074132;28;20095;-56
2021/12/21 12:32:00;;;;;;;8.50;7.38;;;11.00;99.90;;;;;;5073814;28;20055;-56
2021/12/21 12:34:29;;;;;;;12.23;9.30;;;10.00;99.90;;;;;;5071289;28;20044;-56
2021/12/21 12:36:56;;;;;;;9.73;7.85;;;10.00;99.90;;;;;;5069708;28;20491;-55
2021/12/21 12:39:37;;;;;;;11.15;8.20;;;10.40;99.90;;;;;;5071560;28;20406;-55
2021/12/21 12:42:07;;;;;;;8.65;6.80;;;10.40;99.90;;;;;;5071563;28;20427;-49
2021/12/21 12:44:34;;;;;;;7.82;6.75;;;10.50;99.90;;;;;;5055138;28;20036;-55
2021/12/21 12:47:03;;;;;;;9.23;7.20;;;10.50;99.90;;;;;;5070091;28;20039;-57
2021/12/21 12:49:32;;;;;;;7.72;6.93;;;10.40;99.90;;;;;;5069878;28;20040;-56
2021/12/21 12:52:13;;;;;;;8.25;6.30;;;10.20;99.90;;;;;;5071375;28;20048;-52
2021/12/21 12:54:46;;;;;;;11.18;9.13;;;10.10;99.90;;;;;;5069846;28;20115;-53
2021/12/21 12:57:27;;;;;;;10.57;8.30;;;10.10;99.90;;;;;;5069018;28;20032;-57
2021/12/21 13:00:06;;;;;;;9.63;6.38;;;10.10;99.90;;;;;;5069341;28;20047;-58
2021/12/21 13:02:32;;;;;;;8.55;6.90;;;10.40;99.90;;;;;;5066696;28;20494;-54
2021/12/21 13:05:03;;;;;;;9.13;7.20;;;10.80;99.90;;;;;;5073427;28;20085;-57
2021/12/21 13:07:29;;;;;;;10.20;6.88;;;10.30;99.90;;;;;;5069688;28;20046;-55
2021/12/21 13:10:07;;;;;;;7.47;6.35;;;10.60;99.90;;;;;;5068298;28;20033;-57
2021/12/21 13:12:33;;;;;;;8.43;6.80;;;10.50;99.90;;;;;;5069127;28;20158;-55
2021/12/21 13:14:59;;;;;;;13.43;11.70;;;10.50;99.90;;;;;;5070397;28;20107;-54
2021/12/21 13:17:25;;;;;;;13.50;10.48;;;10.40;99.90;;;;;;5069123;28;20039;-55
2021/12/21 13:19:51;;;;;;;11.25;9.10;;;10.20;99.90;;;;;;5069309;28;20040;-53
2021/12/21 13:22:27;;;;;;;15.48;13.75;;;10.40;99.90;;;;;;5071066;28;20021;-57
2021/12/21 13:24:54;;;;;;;8.10;6.80;;;10.40;99.90;;;;;;5071027;28;20028;-58
2021/12/21 13:27:24;;;;;;;8.18;6.78;;;10.50;99.90;;;;;;5069330;28;20020;-56
2021/12/21 13:29:52;;;;;;;10.43;6.88;;;10.60;99.90;;;;;;5059291;28;20021;-53
2021/12/21 13:32:20;;;;;;;7.03;6.10;;;10.60;99.90;;;;;;5068755;28;20055;-53
2021/12/21 13:34:52;;;;;;;9.20;6.28;;;10.70;99.90;;;;;;5071477;28;20033;-57
2021/12/21 13:37:19;;;;;;;9.18;6.40;;;10.60;99.90;;;;;;5069056;28;20032;-55
2021/12/21 13:40:03;;;;;;;9.55;7.38;;;10.70;99.90;;;;;;5070525;28;20040;-55
2021/12/21 13:42:30;;;;;;;8.23;6.57;;;10.90;99.90;;;;;;5069004;28;20021;-55
2021/12/21 13:44:59;;;;;;;11.07;8.23;;;10.90;99.90;;;;;;5069947;28;20032;-48
2021/12/21 13:47:30;;;;;;;8.50;7.07;;;11.00;99.90;;;;;;5067831;28;20107;-55